Time;durP1;ratioP1;P1;durP2;ratioP2;P2;SDS_P1;SDS_P2;PMS_P1;PMS_P2;Temp;Humidity;BMP_temperature;BMP_pressure;BME280_temperature;BME280_humidity;BME280_pressure;Samples;Min_cycle;Max_cycle;Signal;HPM_P1;HPM_P2
2022/06/30 00:01:28;;;;;;;;;;;;;;;;;;5035618;28;20438;-77
2022/06/30 00:03:55;;;;;;;;;;;;;;;;;;5036352;28;19992;-77
2022/06/30 00:06:21;;;;;;;;;;;;;;;;;;5036354;28;19952;-77
2022/06/30 00:08:48;;;;;;;;;;;;;;;;;;5036821;28;19968;-77
2022/06/30 00:11:14;;;;;;;;;;;;;;;;;;5035678;28;20028;-77
2022/06/30 00:13:42;;;;;;;;;;;;;;;;;;5036100;28;20006;-77
2022/06/30 00:16:10;;;;;;;;;;;;;;;;;;5036513;28;19964;-77
2022/06/30 00:18:37;;;;;;;;;;;;;;;;;;5036069;28;20007;-78
2022/06/30 00:21:03;;;;;;;;;;;;;;;;;;5035760;28;20336;-76
2022/06/30 00:23:30;;;;;;;;;;;;;;;;;;5036214;28;20380;-77
2022/06/30 00:25:56;;;;;;;;;;;;;;;;;;5036051;28;19956;-77
2022/06/30 00:28:23;;;;;;;;;;;;;;;;;;5036006;28;20404;-77
2022/06/30 00:30:50;;;;;;;;;;;;;;;;;;5034988;28;20558;-77
2022/06/30 00:33:18;;;;;;;;;;;;;;;;;;5035580;28;20366;-76
2022/06/30 00:35:45;;;;;;;;;;;;;;;;;;5035898;28;20003;-76
2022/06/30 00:38:11;;;;;;;;;;;;;;;;;;5035734;28;19979;-77
2022/06/30 00:40:38;;;;;;;;;;;;;;;;;;5035569;28;20467;-76
2022/06/30 00:43:05;;;;;;;;;;;;;;;;;;5035518;28;19971;-77
2022/06/30 00:45:31;;;;;;;;;;;;;;;;;;5035384;28;19979;-77
2022/06/30 00:47:58;;;;;;;;;;;;;;;;;;5035628;28;19968;-77
2022/06/30 00:50:27;;;;;;;;;;;;;;;;;;5035154;28;19979;-77
2022/06/30 00:52:55;;;;;;;;;;;;;;;;;;5035724;28;20339;-77
2022/06/30 00:55:22;;;;;;;;;;;;;;;;;;5035431;28;20448;-77
2022/06/30 00:57:49;;;;;;;;;;;;;;;;;;5035343;28;20365;-77
2022/06/30 01:00:16;;;;;;;;;;;;;;;;;;5035299;28;20319;-77
2022/06/30 01:02:42;;;;;;;;;;;;;;;;;;5035696;28;20019;-77
2022/06/30 01:05:09;;;;;;;;;;;;;;;;;;5035170;28;19964;-77
2022/06/30 01:07:40;;;;;;;;;;;;;;;;;;5034571;28;20197;-77
2022/06/30 01:12:50;;;;;;;;;;;;;;;;;;5035380;28;20407;-77
2022/06/30 01:15:17;;;;;;;;;;;;;;;;;;5035064;28;19975;-77
2022/06/30 01:17:45;;;;;;;;;;;;;;;;;;5035121;28;20383;-77
2022/06/30 01:20:12;;;;;;;;;;;;;;;;;;5034213;28;19957;-77
2022/06/30 01:22:40;;;;;;;;;;;;;;;;;;5034356;28;19972;-77
2022/06/30 01:25:07;;;;;;;;;;;;;;;;;;5034747;28;20451;-77
2022/06/30 01:27:33;;;;;;;;;;;;;;;;;;5034579;28;19957;-77
2022/06/30 01:30:01;;;;;;;;;;;;;;;;;;5034430;28;19979;-76
2022/06/30 01:32:29;;;;;;;;;;;;;;;;;;5034902;28;19971;-76
2022/06/30 01:34:56;;;;;;;;;;;;;;;;;;5035066;28;20024;-76
2022/06/30 01:37:23;;;;;;;;;;;;;;;;;;5032207;28;19983;-77
2022/06/30 01:39:51;;;;;;;;;;;;;;;;;;5032002;28;19979;-76
2022/06/30 01:42:17;;;;;;;;;;;;;;;;;;5032148;28;20344;-77
2022/06/30 01:44:44;;;;;;;;;;;;;;;;;;5032245;28;19957;-77
2022/06/30 01:47:10;;;;;;;;;;;;;;;;;;5032258;28;20031;-76
2022/06/30 01:49:37;;;;;;;;;;;;;;;;;;5032005;28;19983;-77
2022/06/30 01:52:04;;;;;;;;;;;;;;;;;;5032513;28;20016;-76
2022/06/30 01:54:30;;;;;;;;;;;;;;;;;;5032585;28;19968;-76
2022/06/30 01:56:58;;;;;;;;;;;;;;;;;;5032630;28;19971;-77
2022/06/30 01:59:24;;;;;;;;;;;;;;;;;;5031789;28;20343;-77
2022/06/30 02:01:51;;;;;;;;;;;;;;;;;;5031878;28;20295;-76
2022/06/30 02:10:05;;;;;;;;;;;;;;;;;;5028855;28;19943;-77
2022/06/30 02:12:48;;;;;;;;;;;;;;;;;;5032234;28;19925;-77
2022/06/30 02:15:15;;;;;;;;;;;;;;;;;;5032041;28;20020;-77
2022/06/30 02:17:42;;;;;;;;;;;;;;;;;;5032013;28;20391;-77
2022/06/30 02:20:10;;;;;;;;;;;;;;;;;;5031866;28;19975;-76
2022/06/30 02:22:36;;;;;;;;;;;;;;;;;;5032248;28;20300;-77
2022/06/30 02:25:03;;;;;;;;;;;;;;;;;;5031968;28;20308;-77
2022/06/30 02:27:29;;;;;;;;;;;;;;;;;;5032037;28;20392;-76
2022/06/30 02:29:57;;;;;;;;;;;;;;;;;;5032059;28;20020;-77
2022/06/30 02:32:23;;;;;;;;;;;;;;;;;;5032237;28;19925;-77
2022/06/30 02:37:53;;;;;;;;;;;;;;;;;;5028704;28;19924;-76
2022/06/30 02:40:19;;;;;;;;;;;;;;;;;;5031244;28;19972;-76
2022/06/30 02:42:46;;;;;;;;;;;;;;;;;;5031622;28;19931;-76
2022/06/30 02:45:14;;;;;;;;;;;;;;;;;;5031739;28;19928;-75
2022/06/30 02:47:41;;;;;;;;;;;;;;;;;;5031954;28;19935;-75
2022/06/30 02:50:09;;;;;;;;;;;;;;;;;;5031291;28;20410;-75
2022/06/30 02:52:36;;;;;;;;;;;;;;;;;;5032006;28;19926;-75
2022/06/30 02:55:03;;;;;;;;;;;;;;;;;;5035299;28;19925;-76
2022/06/30 02:57:29;;;;;;;;;;;;;;;;;;5035354;28;19931;-76
2022/06/30 02:59:56;;;;;;;;;;;;;;;;;;5035152;28;19976;-75
2022/06/30 03:02:24;;;;;;;;;;;;;;;;;;5035380;28;20027;-75
2022/06/30 03:04:50;;;;;;;;;;;;;;;;;;5035216;28;19932;-76
2022/06/30 03:07:16;;;;;;;;;;;;;;;;;;5035233;28;19925;-76
2022/06/30 03:09:43;;;;;;;;;;;;;;;;;;5034678;28;19937;-76
2022/06/30 03:12:10;;;;;;;;;;;;;;;;;;5034984;28;20015;-76
2022/06/30 03:14:36;;;;;;;;;;;;;;;;;;5034842;28;20406;-76
2022/06/30 03:17:03;;;;;;;;;;;;;;;;;;5035106;28;20016;-75
2022/06/30 03:19:30;;;;;;;;;;;;;;;;;;5034578;28;19925;-75
2022/06/30 03:21:57;;;;;;;;;;;;;;;;;;5035350;28;19925;-76
2022/06/30 03:24:23;;;;;;;;;;;;;;;;;;5035324;28;19931;-76
2022/06/30 03:26:50;;;;;;;;;;;;;;;;;;5035187;28;20291;-77
2022/06/30 03:29:16;;;;;;;;;;;;;;;;;;5034868;28;20391;-77
2022/06/30 03:31:43;;;;;;;;;;;;;;;;;;5035172;28;19991;-77
2022/06/30 03:34:10;;;;;;;;;;;;;;;;;;5034506;28;20011;-77
2022/06/30 03:36:37;;;;;;;;;;;;;;;;;;5035107;28;20024;-77
2022/06/30 03:39:05;;;;;;;;;;;;;;;;;;5035286;28;19981;-77
2022/06/30 03:41:31;;;;;;;;;;;;;;;;;;5034454;28;19929;-77
2022/06/30 03:43:58;;;;;;;;;;;;;;;;;;5035036;28;19947;-76
2022/06/30 03:46:24;;;;;;;;;;;;;;;;;;5035052;28;20016;-77
2022/06/30 03:48:51;;;;;;;;;;;;;;;;;;5034950;28;19931;-77
2022/06/30 03:51:17;;;;;;;;;;;;;;;;;;5034506;28;19925;-77
2022/06/30 03:53:45;;;;;;;;;;;;;;;;;;5034942;28;20020;-77
2022/06/30 03:56:11;;;;;;;;;;;;;;;;;;5034750;28;19925;-77
2022/06/30 03:58:38;;;;;;;;;;;;;;;;;;5034901;28;19925;-77
2022/06/30 04:01:04;;;;;;;;;;;;;;;;;;5034329;28;19961;-77
2022/06/30 04:03:31;;;;;;;;;;;;;;;;;;5034327;28;19929;-77
2022/06/30 04:05:57;;;;;;;;;;;;;;;;;;5032907;28;19925;-74
2022/06/30 04:08:24;;;;;;;;;;;;;;;;;;5034009;28;20015;-75
2022/06/30 04:10:52;;;;;;;;;;;;;;;;;;5033815;28;20008;-75
2022/06/30 04:16:29;;;;;;;;;;;;;;;;;;5034167;28;19924;-76
2022/06/30 04:18:55;;;;;;;;;;;;;;;;;;5030092;28;20029;-75
2022/06/30 04:21:22;;;;;;;;;;;;;;;;;;5033615;28;20020;-75
2022/06/30 04:23:48;;;;;;;;;;;;;;;;;;5034537;28;20124;-75
2022/06/30 04:26:18;;;;;;;;;;;;;;;;;;5034162;28;19931;-75
2022/06/30 04:28:45;;;;;;;;;;;;;;;;;;5033500;28;20296;-75
2022/06/30 04:33:55;;;;;;;;;;;;;;;;;;5033222;28;19932;-75
2022/06/30 04:36:21;;;;;;;;;;;;;;;;;;5033716;28;20019;-75
2022/06/30 04:38:48;;;;;;;;;;;;;;;;;;5033533;28;19925;-75
2022/06/30 04:41:24;;;;;;;;;;;;;;;;;;5032908;28;20492;-78
2022/06/30 04:43:51;;;;;;;;;;;;;;;;;;5033114;28;20030;-75
2022/06/30 04:46:17;;;;;;;;;;;;;;;;;;5033131;28;19932;-78
2022/06/30 04:48:43;;;;;;;;;;;;;;;;;;5033233;28;19925;-75
2022/06/30 04:51:10;;;;;;;;;;;;;;;;;;5032925;28;19929;-75
2022/06/30 04:53:36;;;;;;;;;;;;;;;;;;5033494;28;19932;-75
2022/06/30 04:56:03;;;;;;;;;;;;;;;;;;5033095;28;20004;-77
2022/06/30 04:58:30;;;;;;;;;;;;;;;;;;5032967;28;19925;-76
2022/06/30 05:00:57;;;;;;;;;;;;;;;;;;5032756;28;19925;-76
2022/06/30 05:03:23;;;;;;;;;;;;;;;;;;5032616;28;20365;-76
2022/06/30 05:05:50;;;;;;;;;;;;;;;;;;5032722;28;20360;-76
2022/06/30 05:08:16;;;;;;;;;;;;;;;;;;5032692;28;20020;-76
2022/06/30 05:10:42;;;;;;;;;;;;;;;;;;5032949;28;20020;-77
2022/06/30 05:13:09;;;;;;;;;;;;;;;;;;5032686;28;20387;-77
2022/06/30 05:15:37;;;;;;;;;;;;;;;;;;5033056;28;19929;-77
2022/06/30 05:18:04;;;;;;;;;;;;;;;;;;5033309;28;19925;-77
2022/06/30 05:20:31;;;;;;;;;;;;;;;;;;5033317;28;20422;-77
2022/06/30 05:22:58;;;;;;;;;;;;;;;;;;5033436;28;19991;-76
2022/06/30 05:28:08;;;;;;;;;;;;;;;;;;5035871;28;20299;-77
2022/06/30 05:30:35;;;;;;;;;;;;;;;;;;5035056;28;19932;-77
2022/06/30 05:33:02;;;;;;;;;;;;;;;;;;5033594;28;20347;-77
2022/06/30 05:35:29;;;;;;;;;;;;;;;;;;5032579;28;20300;-77
2022/06/30 05:37:55;;;;;;;;;;;;;;;;;;5032413;28;19925;-77
2022/06/30 05:40:22;;;;;;;;;;;;;;;;;;5034980;28;19925;-76
2022/06/30 05:42:48;;;;;;;;;;;;;;;;;;5032185;28;19932;-77
2022/06/30 05:45:15;;;;;;;;;;;;;;;;;;5032654;28;19925;-76
2022/06/30 05:47:45;;;;;;;;;;;;;;;;;;5032701;28;19929;-77
2022/06/30 05:50:13;;;;;;;;;;;;;;;;;;5032153;28;19936;-76
2022/06/30 05:52:39;;;;;;;;;;;;;;;;;;5032546;28;19929;-77
2022/06/30 05:55:07;;;;;;;;;;;;;;;;;;5031815;28;19925;-76
2022/06/30 05:57:33;;;;;;;;;;;;;;;;;;5031956;28;19925;-77
2022/06/30 06:00:00;;;;;;;;;;;;;;;;;;5031946;28;20008;-76
2022/06/30 06:02:26;;;;;;;;;;;;;;;;;;5032315;28;19969;-76
2022/06/30 06:04:52;;;;;;;;;;;;;;;;;;5034544;28;19979;-77
2022/06/30 06:07:20;;;;;;;;;;;;;;;;;;5033880;28;19951;-78
2022/06/30 06:09:47;;;;;;;;;;;;;;;;;;5033351;28;20296;-77
2022/06/30 06:12:13;;;;;;;;;;;;;;;;;;5033425;28;19964;-77
2022/06/30 06:14:40;;;;;;;;;;;;;;;;;;5033745;28;20443;-78
2022/06/30 06:17:06;;;;;;;;;;;;;;;;;;5034151;28;20284;-78
2022/06/30 06:19:32;;;;;;;;;;;;;;;;;;5034340;28;19932;-78
2022/06/30 06:22:00;;;;;;;;;;;;;;;;;;5035437;28;20376;-77
2022/06/30 06:24:27;;;;;;;;;;;;;;;;;;5033156;28;19952;-77
2022/06/30 06:26:54;;;;;;;;;;;;;;;;;;5032638;28;20384;-77
2022/06/30 06:29:21;;;;;;;;;;;;;;;;;;5034595;28;19939;-77
2022/06/30 06:31:47;;;;;;;;;;;;;;;;;;5036061;28;19925;-77
2022/06/30 06:34:14;;;;;;;;;;;;;;;;;;5035635;28;19925;-76
2022/06/30 06:36:40;;;;;;;;;;;;;;;;;;5036187;28;19969;-77
2022/06/30 06:39:07;;;;;;;;;;;;;;;;;;5035931;28;19929;-77
2022/06/30 06:41:35;;;;;;;;;;;;;;;;;;5035797;28;19948;-76
2022/06/30 06:44:01;;;;;;;;;;;;;;;;;;5039100;28;20317;-77
2022/06/30 06:46:28;;;;;;;;;;;;;;;;;;5036484;28;19925;-77
2022/06/30 06:48:55;;;;;;;;;;;;;;;;;;5036985;28;19931;-77
2022/06/30 06:51:21;;;;;;;;;;;;;;;;;;5039725;28;19925;-77
2022/06/30 06:53:48;;;;;;;;;;;;;;;;;;5045169;28;20007;-77
2022/06/30 06:56:15;;;;;;;;;;;;;;;;;;5044108;28;19929;-77
2022/06/30 06:58:43;;;;;;;;;;;;;;;;;;5036634;28;19925;-77
2022/06/30 07:01:09;;;;;;;;;;;;;;;;;;5035395;28;19925;-77
2022/06/30 07:03:35;;;;;;;;;;;;;;;;;;5035316;28;20024;-77
2022/06/30 07:06:02;;;;;;;;;;;;;;;;;;5035872;28;19972;-77
2022/06/30 07:08:28;;;;;;;;;;;;;;;;;;5035770;28;19925;-77
2022/06/30 07:10:56;;;;;;;;;;;;;;;;;;5034670;28;20439;-77
2022/06/30 07:13:23;;;;;;;;;;;;;;;;;;5035475;28;19990;-78
2022/06/30 07:15:51;;;;;;;;;;;;;;;;;;5034885;28;19975;-77
2022/06/30 07:18:17;;;;;;;;;;;;;;;;;;5035512;28;20012;-78
2022/06/30 07:20:44;;;;;;;;;;;;;;;;;;5035563;28;19925;-77
2022/06/30 07:23:10;;;;;;;;;;;;;;;;;;5036600;28;20012;-77
2022/06/30 07:25:36;;;;;;;;;;;;;;;;;;5034606;28;19929;-77
2022/06/30 07:28:03;;;;;;;;;;;;;;;;;;5038762;28;19929;-77
2022/06/30 07:30:30;;;;;;;;;;;;;;;;;;5040295;28;19988;-77
2022/06/30 07:32:57;;;;;;;;;;;;;;;;;;5038119;28;19925;-78
2022/06/30 07:35:24;;;;;;;;;;;;;;;;;;5036235;28;19925;-77
2022/06/30 07:37:51;;;;;;;;;;;;;;;;;;5035212;28;20371;-76
2022/06/30 07:40:17;;;;;;;;;;;;;;;;;;5034620;28;20015;-76
2022/06/30 07:42:43;;;;;;;;;;;;;;;;;;5035282;28;20016;-76
2022/06/30 07:45:11;;;;;;;;;;;;;;;;;;5034688;28;19925;-77
2022/06/30 07:47:39;;;;;;;;;;;;;;;;;;5034573;28;20327;-76
2022/06/30 07:50:08;;;;;;;;;;;;;;;;;;5033989;28;19925;-77
2022/06/30 07:52:34;;;;;;;;;;;;;;;;;;5035150;28;19987;-78
2022/06/30 07:55:01;;;;;;;;;;;;;;;;;;5035630;28;19987;-78
2022/06/30 07:57:27;;;;;;;;;;;;;;;;;;5034839;28;20373;-77
2022/06/30 07:59:54;;;;;;;;;;;;;;;;;;5034356;28;20384;-76
2022/06/30 08:02:20;;;;;;;;;;;;;;;;;;5034791;28;19932;-76
2022/06/30 08:04:47;;;;;;;;;;;;;;;;;;5034369;28;19932;-77
2022/06/30 08:07:15;;;;;;;;;;;;;;;;;;5034236;28;19936;-77
2022/06/30 08:09:41;;;;;;;;;;;;;;;;;;5033749;28;19931;-77
2022/06/30 08:12:08;;;;;;;;;;;;;;;;;;5034202;28;19926;-76
2022/06/30 08:14:34;;;;;;;;;;;;;;;;;;5033954;28;20013;-76
2022/06/30 08:17:01;;;;;;;;;;;;;;;;;;5034043;28;19931;-77
2022/06/30 08:19:28;;;;;;;;;;;;;;;;;;5033799;28;19931;-75
2022/06/30 08:21:54;;;;;;;;;;;;;;;;;;5034080;28;19979;-76
2022/06/30 08:24:22;;;;;;;;;;;;;;;;;;5033820;28;20012;-77
2022/06/30 08:26:48;;;;;;;;;;;;;;;;;;5033987;28;19925;-77
2022/06/30 08:29:15;;;;;;;;;;;;;;;;;;5033689;28;19925;-76
2022/06/30 08:31:41;;;;;;;;;;;;;;;;;;5033745;28;20303;-76
2022/06/30 08:34:08;;;;;;;;;;;;;;;;;;5033418;28;20008;-76
2022/06/30 08:36:35;;;;;;;;;;;;;;;;;;5033515;28;19925;-77
2022/06/30 08:39:01;;;;;;;;;;;;;;;;;;5033826;28;20023;-76
2022/06/30 08:44:18;;;;;;;;;;;;;;;;;;5033508;28;19939;-77
2022/06/30 08:46:46;;;;;;;;;;;;;;;;;;5033526;28;19960;-77
2022/06/30 08:49:12;;;;;;;;;;;;;;;;;;5033189;28;20346;-76
2022/06/30 08:51:39;;;;;;;;;;;;;;;;;;5032525;28;19925;-77
2022/06/30 08:54:06;;;;;;;;;;;;;;;;;;5036043;28;19925;-76
2022/06/30 08:56:35;;;;;;;;;;;;;;;;;;5049164;28;19925;-77
2022/06/30 08:59:02;;;;;;;;;;;;;;;;;;5049666;28;19925;-76
2022/06/30 09:01:29;;;;;;;;;;;;;;;;;;5051793;28;20017;-77
2022/06/30 09:03:56;;;;;;;;;;;;;;;;;;5048504;28;20316;-77
2022/06/30 09:06:22;;;;;;;;;;;;;;;;;;5033529;28;20015;-78
2022/06/30 09:08:49;;;;;;;;;;;;;;;;;;5033586;28;19932;-77
2022/06/30 09:11:15;;;;;;;;;;;;;;;;;;5033142;28;20020;-77
2022/06/30 09:13:44;;;;;;;;;;;;;;;;;;5033213;28;19936;-77
2022/06/30 09:16:10;;;;;;;;;;;;;;;;;;5033179;28;19932;-76
2022/06/30 09:18:37;;;;;;;;;;;;;;;;;;5033121;28;20364;-76
2022/06/30 09:21:15;;;;;;;;;;;;;;;;;;5033101;28;19929;-78
2022/06/30 09:23:43;;;;;;;;;;;;;;;;;;5040571;28;19932;-76
2022/06/30 09:26:15;;;;;;;;;;;;;;;;;;5051595;28;19925;-77
2022/06/30 09:28:44;;;;;;;;;;;;;;;;;;5049275;28;19993;-77
2022/06/30 09:31:11;;;;;;;;;;;;;;;;;;5044160;28;19925;-77
2022/06/30 09:33:39;;;;;;;;;;;;;;;;;;5048614;28;19964;-77
2022/06/30 09:36:18;;;;;;;;;;;;;;;;;;5049650;28;20338;-77
2022/06/30 09:38:58;;;;;;;;;;;;;;;;;;5049165;28;19940;-77
2022/06/30 09:41:28;;;;;;;;;;;;;;;;;;5043506;28;20307;-77
2022/06/30 09:43:56;;;;;;;;;;;;;;;;;;5045830;28;20403;-77
2022/06/30 09:46:22;;;;;;;;;;;;;;;;;;5047050;28;19936;-77
2022/06/30 09:48:49;;;;;;;;;;;;;;;;;;5047295;28;19926;-77
2022/06/30 09:51:15;;;;;;;;;;;;;;;;;;5043141;28;19925;-77
2022/06/30 09:53:42;;;;;;;;;;;;;;;;;;5044897;28;20416;-78
2022/06/30 09:56:12;;;;;;;;;;;;;;;;;;5046568;28;19931;-77
2022/06/30 09:58:41;;;;;;;;;;;;;;;;;;5047952;28;19936;-77
2022/06/30 10:01:09;;;;;;;;;;;;;;;;;;5027426;28;19932;-77
2022/06/30 10:03:44;;;;;;;;;;;;;;;;;;5025771;28;19925;-77
2022/06/30 10:06:11;;;;;;;;;;;;;;;;;;5027081;28;19972;-76
2022/06/30 10:08:38;;;;;;;;;;;;;;;;;;5035442;28;19913;-77
2022/06/30 10:11:05;;;;;;;;;;;;;;;;;;5022392;28;19933;-77
2022/06/30 10:13:35;;;;;;;;;;;;;;;;;;5019606;28;19925;-77
2022/06/30 10:16:02;;;;;;;;;;;;;;;;;;5019119;28;19976;-77
2022/06/30 10:18:31;;;;;;;;;;;;;;;;;;5024817;28;20380;-77
2022/06/30 10:20:58;;;;;;;;;;;;;;;;;;5019693;28;19932;-77
2022/06/30 10:23:24;;;;;;;;;;;;;;;;;;5020210;28;20445;-77
2022/06/30 10:25:52;;;;;;;;;;;;;;;;;;5019110;28;19926;-76
2022/06/30 10:28:19;;;;;;;;;;;;;;;;;;5018642;28;20141;-77
2022/06/30 10:30:48;;;;;;;;;;;;;;;;;;5017306;28;20289;-77
2022/06/30 10:33:18;;;;;;;;;;;;;;;;;;5017854;28;20081;-77
2022/06/30 10:35:48;;;;;;;;;;;;;;;;;;5018424;28;19929;-77
2022/06/30 10:38:17;;;;;;;;;;;;;;;;;;5018614;28;19929;-77
2022/06/30 10:40:51;;;;;;;;;;;;;;;;;;5017301;28;20016;-77
2022/06/30 10:43:18;;;;;;;;;;;;;;;;;;5017772;28;19952;-77
2022/06/30 10:45:55;;;;;;;;;;;;;;;;;;5017908;28;19929;-79
2022/06/30 10:48:22;;;;;;;;;;;;;;;;;;5017689;28;19925;-78
2022/06/30 10:50:52;;;;;;;;;;;;;;;;;;5018295;28;20415;-77
2022/06/30 10:53:23;;;;;;;;;;;;;;;;;;5018335;28;19925;-77
2022/06/30 10:55:54;;;;;;;;;;;;;;;;;;5017870;28;19972;-77
2022/06/30 10:58:21;;;;;;;;;;;;;;;;;;5025201;28;19965;-78
2022/06/30 11:00:58;;;;;;;;;;;;;;;;;;5034342;28;20396;-77
2022/06/30 11:03:58;;;;;;;;;;;;;;;;;;5035920;28;19929;-77
2022/06/30 11:06:46;;;;;;;;;;;;;;;;;;5036147;28;19982;-76
2022/06/30 11:09:12;;;;;;;;;;;;;;;;;;5035366;28;19932;-77
2022/06/30 11:11:42;;;;;;;;;;;;;;;;;;5035423;28;19932;-76
2022/06/30 11:14:24;;;;;;;;;;;;;;;;;;5035267;28;19988;-77
2022/06/30 11:16:50;;;;;;;;;;;;;;;;;;5035653;28;20015;-76
2022/06/30 11:19:21;;;;;;;;;;;;;;;;;;5035401;28;19925;-77
2022/06/30 11:21:48;;;;;;;;;;;;;;;;;;5035432;28;19976;-76
2022/06/30 11:24:16;;;;;;;;;;;;;;;;;;5035257;28;20016;-77
2022/06/30 11:29:27;;;;;;;;;;;;;;;;;;5034820;28;20434;-77
2022/06/30 11:31:58;;;;;;;;;;;;;;;;;;5035012;28;19932;-77
2022/06/30 11:34:25;;;;;;;;;;;;;;;;;;5035021;28;19928;-76
2022/06/30 11:36:53;;;;;;;;;;;;;;;;;;5034951;28;19937;-76
2022/06/30 11:39:20;;;;;;;;;;;;;;;;;;5034959;28;20031;-77
2022/06/30 11:41:57;;;;;;;;;;;;;;;;;;5035306;28;20343;-76
2022/06/30 11:44:24;;;;;;;;;;;;;;;;;;5034687;28;20020;-77
2022/06/30 11:46:51;;;;;;;;;;;;;;;;;;5034641;28;19929;-76
2022/06/30 11:49:18;;;;;;;;;;;;;;;;;;5034925;28;19925;-77
2022/06/30 11:51:45;;;;;;;;;;;;;;;;;;5035016;28;19975;-77
2022/06/30 11:54:13;;;;;;;;;;;;;;;;;;5036414;28;19947;-77
2022/06/30 11:56:47;;;;;;;;;;;;;;;;;;5036677;28;19969;-77
2022/06/30 11:59:13;;;;;;;;;;;;;;;;;;5035675;28;19931;-77
2022/06/30 12:01:39;;;;;;;;;;;;;;;;;;5034913;28;19925;-76
2022/06/30 12:04:12;;;;;;;;;;;;;;;;;;5034206;28;20281;-77
2022/06/30 12:06:39;;;;;;;;;;;;;;;;;;5034187;28;20377;-77
2022/06/30 12:09:05;;;;;;;;;;;;;;;;;;5034568;28;19933;-77
2022/06/30 12:11:35;;;;;;;;;;;;;;;;;;5033694;28;19925;-76
2022/06/30 12:14:01;;;;;;;;;;;;;;;;;;5033770;28;19967;-77
2022/06/30 12:16:28;;;;;;;;;;;;;;;;;;5034633;28;20307;-77
2022/06/30 12:18:54;;;;;;;;;;;;;;;;;;5034179;28;19925;-76
2022/06/30 12:21:21;;;;;;;;;;;;;;;;;;5033523;28;19925;-76
2022/06/30 12:23:49;;;;;;;;;;;;;;;;;;5033790;28;19948;-75
2022/06/30 12:26:15;;;;;;;;;;;;;;;;;;5032969;28;20008;-76
2022/06/30 12:28:47;;;;;;;;;;;;;;;;;;5034083;28;20304;-77
2022/06/30 12:31:22;;;;;;;;;;;;;;;;;;5033426;28;19933;-77
2022/06/30 12:33:49;;;;;;;;;;;;;;;;;;5033519;28;19932;-76
2022/06/30 12:36:15;;;;;;;;;;;;;;;;;;5033650;28;19929;-78
2022/06/30 12:38:42;;;;;;;;;;;;;;;;;;5033502;28;19932;-77
2022/06/30 12:41:08;;;;;;;;;;;;;;;;;;5033428;28;19929;-76
2022/06/30 12:43:42;;;;;;;;;;;;;;;;;;5033108;28;20384;-76
2022/06/30 12:46:11;;;;;;;;;;;;;;;;;;5033584;28;20402;-76
2022/06/30 12:48:45;;;;;;;;;;;;;;;;;;5033426;28;19932;-77
2022/06/30 12:51:12;;;;;;;;;;;;;;;;;;5032869;28;20493;-77
2022/06/30 12:53:39;;;;;;;;;;;;;;;;;;5033091;28;19932;-76
2022/06/30 12:56:07;;;;;;;;;;;;;;;;;;5033300;28;20124;-77
2022/06/30 12:58:44;;;;;;;;;;;;;;;;;;5033054;28;19931;-77
2022/06/30 13:01:14;;;;;;;;;;;;;;;;;;5013006;28;20028;-77
2022/06/30 13:03:48;;;;;;;;;;;;;;;;;;5013003;28;19932;-77
2022/06/30 13:06:15;;;;;;;;;;;;;;;;;;5013343;28;19932;-77
2022/06/30 13:08:43;;;;;;;;;;;;;;;;;;5013134;28;19973;-77
2022/06/30 13:11:11;;;;;;;;;;;;;;;;;;5012621;28;19925;-77
2022/06/30 13:13:37;;;;;;;;;;;;;;;;;;5013137;28;19979;-77
2022/06/30 13:16:04;;;;;;;;;;;;;;;;;;5012961;28;20420;-77
2022/06/30 13:18:32;;;;;;;;;;;;;;;;;;5013002;28;19936;-77
2022/06/30 13:21:01;;;;;;;;;;;;;;;;;;5013305;28;20095;-77
2022/06/30 13:23:28;;;;;;;;;;;;;;;;;;5013845;28;19932;-77
2022/06/30 13:25:54;;;;;;;;;;;;;;;;;;5014005;28;20019;-77
2022/06/30 13:28:21;;;;;;;;;;;;;;;;;;5013959;28;20419;-77
2022/06/30 13:30:47;;;;;;;;;;;;;;;;;;5013065;28;19932;-77
2022/06/30 13:33:13;;;;;;;;;;;;;;;;;;5013579;28;20276;-77
2022/06/30 13:38:11;;;;;;;;;;;;;;;;;;5035909;28;19968;-79
2022/06/30 13:40:38;;;;;;;;;;;;;;;;;;5038486;28;20007;-78
2022/06/30 13:43:04;;;;;;;;;;;;;;;;;;5039657;28;19925;-79
2022/06/30 13:45:31;;;;;;;;;;;;;;;;;;5038202;28;20025;-79
2022/06/30 13:47:57;;;;;;;;;;;;;;;;;;5038505;28;19931;-80
2022/06/30 13:50:24;;;;;;;;;;;;;;;;;;5038428;28;19925;-80
2022/06/30 13:52:50;;;;;;;;;;;;;;;;;;5039273;28;19972;-79
2022/06/30 13:55:18;;;;;;;;;;;;;;;;;;5038321;28;20012;-80
2022/06/30 13:57:44;;;;;;;;;;;;;;;;;;5036659;28;19926;-79
2022/06/30 14:00:11;;;;;;;;;;;;;;;;;;5023091;28;19925;-79
2022/06/30 14:02:38;;;;;;;;;;;;;;;;;;5016981;28;19990;-81
2022/06/30 14:05:05;;;;;;;;;;;;;;;;;;5016209;28;19929;-80
2022/06/30 14:07:31;;;;;;;;;;;;;;;;;;5016657;28;19932;-80
2022/06/30 14:09:59;;;;;;;;;;;;;;;;;;5015988;28;19925;-79
2022/06/30 14:12:27;;;;;;;;;;;;;;;;;;5016225;28;19929;-79
2022/06/30 14:14:53;;;;;;;;;;;;;;;;;;5016533;28;19936;-79
2022/06/30 14:17:20;;;;;;;;;;;;;;;;;;5016468;28;20410;-79
2022/06/30 14:19:47;;;;;;;;;;;;;;;;;;5015536;28;19936;-79
2022/06/30 14:22:14;;;;;;;;;;;;;;;;;;5020149;28;20403;-78
2022/06/30 14:24:40;;;;;;;;;;;;;;;;;;5019042;28;19926;-79
2022/06/30 14:27:06;;;;;;;;;;;;;;;;;;5019959;28;20384;-79
2022/06/30 14:29:34;;;;;;;;;;;;;;;;;;5020769;28;19988;-79
2022/06/30 14:32:01;;;;;;;;;;;;;;;;;;5025313;28;20291;-80
2022/06/30 14:34:27;;;;;;;;;;;;;;;;;;5023504;28;20004;-80
2022/06/30 14:36:53;;;;;;;;;;;;;;;;;;5020387;28;20025;-80
2022/06/30 14:39:20;;;;;;;;;;;;;;;;;;5022267;28;19926;-80
2022/06/30 14:44:32;;;;;;;;;;;;;;;;;;5019248;28;19932;-80
2022/06/30 14:47:00;;;;;;;;;;;;;;;;;;5016662;28;19925;-80
2022/06/30 14:49:26;;;;;;;;;;;;;;;;;;5017562;28;19936;-80
2022/06/30 14:51:52;;;;;;;;;;;;;;;;;;5020445;28;20008;-79
2022/06/30 14:54:19;;;;;;;;;;;;;;;;;;5019717;28;20032;-80
2022/06/30 14:56:46;;;;;;;;;;;;;;;;;;5020416;28;19960;-80
2022/06/30 14:59:12;;;;;;;;;;;;;;;;;;5019312;28;19926;-79
2022/06/30 15:01:39;;;;;;;;;;;;;;;;;;5019629;28;19990;-77
2022/06/30 15:04:07;;;;;;;;;;;;;;;;;;5019193;28;20016;-80
2022/06/30 15:06:34;;;;;;;;;;;;;;;;;;5019927;28;19925;-77
2022/06/30 15:09:01;;;;;;;;;;;;;;;;;;5015748;28;19925;-77
2022/06/30 15:11:28;;;;;;;;;;;;;;;;;;5015629;28;20024;-77
2022/06/30 15:13:55;;;;;;;;;;;;;;;;;;5015636;28;20451;-78
2022/06/30 15:16:22;;;;;;;;;;;;;;;;;;5015906;28;19933;-79
2022/06/30 15:18:48;;;;;;;;;;;;;;;;;;5015561;28;19926;-79
2022/06/30 15:24:08;;;;;;;;;;;;;;;;;;5025188;28;19987;-78
2022/06/30 15:26:34;;;;;;;;;;;;;;;;;;5025099;28;19933;-79
2022/06/30 15:29:01;;;;;;;;;;;;;;;;;;5024603;28;19925;-79
2022/06/30 15:31:28;;;;;;;;;;;;;;;;;;5023879;28;20367;-79
2022/06/30 15:33:54;;;;;;;;;;;;;;;;;;5022181;28;20380;-80
2022/06/30 15:36:22;;;;;;;;;;;;;;;;;;5019982;28;19968;-79
2022/06/30 15:38:48;;;;;;;;;;;;;;;;;;5018577;28;19926;-79
2022/06/30 15:41:15;;;;;;;;;;;;;;;;;;5022794;28;19935;-77
2022/06/30 15:43:43;;;;;;;;;;;;;;;;;;5030087;28;19963;-78
2022/06/30 15:46:10;;;;;;;;;;;;;;;;;;5029553;28;19926;-78
2022/06/30 15:48:36;;;;;;;;;;;;;;;;;;5025574;28;20423;-78
2022/06/30 15:51:03;;;;;;;;;;;;;;;;;;5014766;28;19925;-77
2022/06/30 15:53:30;;;;;;;;;;;;;;;;;;5014897;28;19926;-78
2022/06/30 15:55:57;;;;;;;;;;;;;;;;;;5015359;28;20016;-78
2022/06/30 15:58:24;;;;;;;;;;;;;;;;;;5015915;28;19925;-79
2022/06/30 16:00:50;;;;;;;;;;;;;;;;;;5035887;28;19925;-78
2022/06/30 16:03:16;;;;;;;;;;;;;;;;;;5037925;28;19925;-78
2022/06/30 16:05:43;;;;;;;;;;;;;;;;;;5037880;28;19931;-78
2022/06/30 16:08:09;;;;;;;;;;;;;;;;;;5038432;28;19932;-78
2022/06/30 16:10:37;;;;;;;;;;;;;;;;;;5037821;28;19979;-79
2022/06/30 16:13:04;;;;;;;;;;;;;;;;;;5037393;28;19960;-78
2022/06/30 16:15:30;;;;;;;;;;;;;;;;;;5036635;28;19971;-79
2022/06/30 16:17:57;;;;;;;;;;;;;;;;;;5035992;28;19935;-79
2022/06/30 16:20:23;;;;;;;;;;;;;;;;;;5035648;28;19936;-79
2022/06/30 16:22:50;;;;;;;;;;;;;;;;;;5034710;28;20303;-79
2022/06/30 16:25:17;;;;;;;;;;;;;;;;;;5034936;28;19996;-78
2022/06/30 16:27:45;;;;;;;;;;;;;;;;;;5035452;28;19940;-78
2022/06/30 16:30:17;;;;;;;;;;;;;;;;;;5034506;28;19929;-77
2022/06/30 16:32:43;;;;;;;;;;;;;;;;;;5037498;28;20015;-81
2022/06/30 16:35:10;;;;;;;;;;;;;;;;;;5038635;28;19925;-79
2022/06/30 16:37:36;;;;;;;;;;;;;;;;;;5037213;28;20016;-78
2022/06/30 16:40:03;;;;;;;;;;;;;;;;;;5035928;28;19929;-78
2022/06/30 16:42:29;;;;;;;;;;;;;;;;;;5035882;28;20008;-78
2022/06/30 16:44:57;;;;;;;;;;;;;;;;;;5036343;28;19960;-79
2022/06/30 16:47:24;;;;;;;;;;;;;;;;;;5037559;28;19931;-79
2022/06/30 16:49:50;;;;;;;;;;;;;;;;;;5034996;28;19925;-78
2022/06/30 16:52:17;;;;;;;;;;;;;;;;;;5036712;28;19925;-80
2022/06/30 16:54:43;;;;;;;;;;;;;;;;;;5036545;28;19964;-77
2022/06/30 16:57:10;;;;;;;;;;;;;;;;;;5037452;28;19925;-79
2022/06/30 16:59:37;;;;;;;;;;;;;;;;;;5030697;28;19925;-79
2022/06/30 17:02:05;;;;;;;;;;;;;;;;;;5018506;28;19948;-77
2022/06/30 17:04:32;;;;;;;;;;;;;;;;;;5013195;28;19932;-77
2022/06/30 17:06:59;;;;;;;;;;;;;;;;;;5014523;28;19926;-78
2022/06/30 17:09:25;;;;;;;;;;;;;;;;;;5019487;28;19980;-79
2022/06/30 17:11:52;;;;;;;;;;;;;;;;;;5016896;28;19936;-81
2022/06/30 17:14:20;;;;;;;;;;;;;;;;;;5016088;28;20008;-79
2022/06/30 17:16:47;;;;;;;;;;;;;;;;;;5013590;28;19940;-79
2022/06/30 17:19:15;;;;;;;;;;;;;;;;;;5016316;28;20020;-80
2022/06/30 17:21:42;;;;;;;;;;;;;;;;;;5027069;28;19932;-80